Terminal Aerodrome Forecast
Issued by NWS Cleveland, OH

Home | Current Version | Previous Version | Text Only | Print | Product List | Glossary On
Versions: 1 2 3 4 5 6 7 8 9 10 11 12 13 14 15 16 17 18 19 20 21 22 23 24 25 26 27 28 29 30 31 32 33 34 35 36 37
000
FTUS41 KCLE 041200 AAA
TAFCLE
TAF AMD
KCLE 041218Z 0412/0518 29008KT P6SM OVC018
     FM041600 29010KT P6SM OVC022
     FM050200 30010KT P6SM OVC035
     FM050600 32008KT P6SM SCT035 OVC250=

USA.gov is the U.S. government's official web portal to all federal, state and local government web resources and services.